KTHV/THV METAR and TAF weather

Enter ICAO airport designator
Station Type Date Time Source
KTHV METAR 2019/10/15 20:53 UTC NOAA

KTHV 152053Z AUTO VRB03KT 10SM CLR 20/04 A3004 RMK AO2 SLP175 T02000044 56026


Station Type Date Time Source
KTHV Decoded METAR 2019/10/15 20:53 UTC NOAA

YORK AIRPORT, PA, United States (KTHV) 39-55N 076-53W 144M
Oct 15, 2019 - 04:53 PM EDT / 2019.10.15 2053 UTC
Wind: Variable at 3 MPH (3 KT):0
Visibility: 10 mile(s):0
Sky conditions: clear
Temperature: 68.0 F (20.0 C)
Dew Point: 39.9 F (4.4 C)
Relative Humidity: 35%
Pressure (altimeter): 30.04 in. Hg (1017 hPa)
Pressure tendency: 0.08 inches (2.6 hPa) lower than three hours ago
ob: KTHV 152053Z AUTO VRB03KT 10SM CLR 20/04 A3004 RMK AO2 SLP175 T02000044 56026
cycle: 21

Station Type Date Time Source
KTHV TAF UTC NOAA

Error!

Example: see airport list